sensor_id;sensor_type;location;lat;lon;timestamp;pressure;altitude;pressure_sealevel;temperature;humidity
60465;BME280;46314;52.392;9.758;2023-10-31T00:00:26;98715.16;;;14.36;100.00
60465;BME280;46314;52.392;9.758;2023-10-31T00:02:53;98723.00;;;14.53;100.00
60465;BME280;46314;52.392;9.758;2023-10-31T00:05:19;98720.25;;;13.84;100.00
60465;BME280;46314;52.392;9.758;2023-10-31T00:07:47;98720.75;;;13.67;100.00
60465;BME280;46314;52.392;9.758;2023-10-31T00:10:14;98717.91;;;14.09;100.00
60465;BME280;46314;52.392;9.758;2023-10-31T00:12:42;98716.56;;;13.99;100.00
60465;BME280;46314;52.392;9.758;2023-10-31T00:15:08;98715.47;;;14.31;100.00
60465;BME280;46314;52.392;9.758;2023-10-31T00:17:35;98707.34;;;13.72;100.00
60465;BME280;46314;52.392;9.758;2023-10-31T00:20:02;98706.13;;;13.96;100.00
60465;BME280;46314;52.392;9.758;2023-10-31T00:22:29;98697.00;;;13.73;100.00
60465;BME280;46314;52.392;9.758;2023-10-31T00:24:55;98694.28;;;14.26;100.00
60465;BME280;46314;52.392;9.758;2023-10-31T00:27:22;98691.53;;;14.30;100.00
60465;BME280;46314;52.392;9.758;2023-10-31T00:29:50;98694.88;;;14.39;100.00
60465;BME280;46314;52.392;9.758;2023-10-31T00:32:16;98693.00;;;14.20;100.00
60465;BME280;46314;52.392;9.758;2023-10-31T00:34:43;98695.31;;;14.14;100.00
60465;BME280;46314;52.392;9.758;2023-10-31T00:37:09;98692.16;;;14.16;100.00
60465;BME280;46314;52.392;9.758;2023-10-31T00:39:36;98695.63;;;13.86;100.00
60465;BME280;46314;52.392;9.758;2023-10-31T00:42:02;98695.13;;;13.80;100.00
60465;BME280;46314;52.392;9.758;2023-10-31T00:44:29;98698.78;;;13.85;100.00
60465;BME280;46314;52.392;9.758;2023-10-31T00:46:57;98692.47;;;13.88;100.00
60465;BME280;46314;52.392;9.758;2023-10-31T00:49:23;98684.03;;;13.61;100.00
60465;BME280;46314;52.392;9.758;2023-10-31T00:51:50;98688.56;;;13.69;100.00
60465;BME280;46314;52.392;9.758;2023-10-31T00:54:16;98693.16;;;13.58;100.00
60465;BME280;46314;52.392;9.758;2023-10-31T00:56:43;98689.53;;;13.80;100.00
60465;BME280;46314;52.392;9.758;2023-10-31T00:59:09;98696.34;;;14.06;100.00
60465;BME280;46314;52.392;9.758;2023-10-31T01:01:36;98696.13;;;13.69;100.00
60465;BME280;46314;52.392;9.758;2023-10-31T01:04:04;98694.13;;;13.69;100.00
60465;BME280;46314;52.392;9.758;2023-10-31T01:06:31;98687.19;;;13.59;100.00
60465;BME280;46314;52.392;9.758;2023-10-31T01:08:57;98684.59;;;13.93;100.00
60465;BME280;46314;52.392;9.758;2023-10-31T01:11:24;98674.69;;;13.73;100.00
60465;BME280;46314;52.392;9.758;2023-10-31T01:13:50;98673.75;;;14.38;100.00
60465;BME280;46314;52.392;9.758;2023-10-31T01:16:17;98676.06;;;13.82;100.00
60465;BME280;46314;52.392;9.758;2023-10-31T01:18:43;98667.63;;;13.56;100.00
60465;BME280;46314;52.392;9.758;2023-10-31T01:21:11;98670.41;;;14.02;100.00
60465;BME280;46314;52.392;9.758;2023-10-31T01:23:38;98666.09;;;13.81;100.00
60465;BME280;46314;52.392;9.758;2023-10-31T01:26:04;98665.94;;;13.97;100.00
60465;BME280;46314;52.392;9.758;2023-10-31T01:28:31;98661.94;;;13.95;100.00
60465;BME280;46314;52.392;9.758;2023-10-31T01:30:57;98664.19;;;14.12;100.00
60465;BME280;46314;52.392;9.758;2023-10-31T01:33:24;98666.00;;;14.28;100.00
60465;BME280;46314;52.392;9.758;2023-10-31T01:35:51;98671.84;;;13.92;100.00
60465;BME280;46314;52.392;9.758;2023-10-31T01:38:18;98670.53;;;14.09;100.00
60465;BME280;46314;52.392;9.758;2023-10-31T01:40:48;98656.63;;;13.86;100.00
60465;BME280;46314;52.392;9.758;2023-10-31T01:43:29;98659.38;;;14.09;100.00
60465;BME280;46314;52.392;9.758;2023-10-31T01:45:55;98655.19;;;13.73;100.00
60465;BME280;46314;52.392;9.758;2023-10-31T01:48:22;98648.75;;;14.18;100.00
60465;BME280;46314;52.392;9.758;2023-10-31T01:50:48;98639.50;;;14.11;100.00
60465;BME280;46314;52.392;9.758;2023-10-31T01:53:15;98640.69;;;13.87;100.00
60465;BME280;46314;52.392;9.758;2023-10-31T01:55:44;98639.91;;;13.86;100.00
60465;BME280;46314;52.392;9.758;2023-10-31T01:58:12;98642.06;;;14.23;100.00
60465;BME280;46314;52.392;9.758;2023-10-31T02:00:40;98636.72;;;13.88;100.00
60465;BME280;46314;52.392;9.758;2023-10-31T02:03:06;98629.66;;;14.20;100.00
60465;BME280;46314;52.392;9.758;2023-10-31T02:05:33;98632.28;;;14.10;100.00
60465;BME280;46314;52.392;9.758;2023-10-31T02:08:00;98631.56;;;14.70;100.00
60465;BME280;46314;52.392;9.758;2023-10-31T02:10:27;98617.03;;;14.27;100.00
60465;BME280;46314;52.392;9.758;2023-10-31T02:12:55;98619.78;;;14.84;100.00
60465;BME280;46314;52.392;9.758;2023-10-31T02:15:22;98614.97;;;14.84;100.00
60465;BME280;46314;52.392;9.758;2023-10-31T02:17:50;98629.50;;;14.97;100.00
60465;BME280;46314;52.392;9.758;2023-10-31T02:20:16;98609.81;;;14.26;100.00
60465;BME280;46314;52.392;9.758;2023-10-31T02:22:44;98619.50;;;14.62;100.00
60465;BME280;46314;52.392;9.758;2023-10-31T02:25:17;98618.97;;;14.83;100.00
60465;BME280;46314;52.392;9.758;2023-10-31T02:27:44;98609.94;;;14.93;100.00
60465;BME280;46314;52.392;9.758;2023-10-31T02:30:12;98618.09;;;14.49;100.00
60465;BME280;46314;52.392;9.758;2023-10-31T02:32:38;98619.31;;;14.78;100.00
60465;BME280;46314;52.392;9.758;2023-10-31T02:35:06;98623.28;;;14.77;100.00
60465;BME280;46314;52.392;9.758;2023-10-31T02:37:32;98612.00;;;14.39;100.00
60465;BME280;46314;52.392;9.758;2023-10-31T02:40:01;98615.94;;;14.62;100.00
60465;BME280;46314;52.392;9.758;2023-10-31T02:42:27;98610.00;;;14.40;100.00
60465;BME280;46314;52.392;9.758;2023-10-31T02:44:54;98610.19;;;14.24;100.00
60465;BME280;46314;52.392;9.758;2023-10-31T02:47:21;98600.06;;;14.39;100.00
60465;BME280;46314;52.392;9.758;2023-10-31T02:49:47;98592.81;;;14.34;100.00
60465;BME280;46314;52.392;9.758;2023-10-31T02:52:14;98587.19;;;14.61;100.00
60465;BME280;46314;52.392;9.758;2023-10-31T02:54:40;98595.13;;;14.29;100.00
60465;BME280;46314;52.392;9.758;2023-10-31T02:57:09;98598.25;;;14.54;100.00
60465;BME280;46314;52.392;9.758;2023-10-31T02:59:35;98598.19;;;14.81;100.00
60465;BME280;46314;52.392;9.758;2023-10-31T03:02:02;98597.06;;;14.85;100.00
60465;BME280;46314;52.392;9.758;2023-10-31T03:04:29;98593.81;;;14.49;100.00
60465;BME280;46314;52.392;9.758;2023-10-31T03:06:55;98598.97;;;14.77;100.00
60465;BME280;46314;52.392;9.758;2023-10-31T03:09:22;98599.94;;;14.58;100.00
60465;BME280;46314;52.392;9.758;2023-10-31T03:11:48;98587.88;;;14.54;100.00
60465;BME280;46314;52.392;9.758;2023-10-31T03:14:16;98582.28;;;14.81;100.00
60465;BME280;46314;52.392;9.758;2023-10-31T03:16:42;98583.91;;;14.86;100.00
60465;BME280;46314;52.392;9.758;2023-10-31T03:19:09;98586.22;;;14.80;100.00
60465;BME280;46314;52.392;9.758;2023-10-31T03:21:36;98577.50;;;14.51;100.00
60465;BME280;46314;52.392;9.758;2023-10-31T03:24:02;98579.19;;;14.90;100.00
60465;BME280;46314;52.392;9.758;2023-10-31T03:26:29;98588.19;;;15.13;100.00
60465;BME280;46314;52.392;9.758;2023-10-31T03:28:55;98588.00;;;14.95;100.00
60465;BME280;46314;52.392;9.758;2023-10-31T03:31:24;98592.19;;;14.48;100.00
60465;BME280;46314;52.392;9.758;2023-10-31T03:33:50;98592.28;;;14.55;100.00
60465;BME280;46314;52.392;9.758;2023-10-31T03:36:17;98593.53;;;13.74;100.00
60465;BME280;46314;52.392;9.758;2023-10-31T03:38:43;98592.47;;;13.82;100.00
60465;BME280;46314;52.392;9.758;2023-10-31T03:41:10;98598.41;;;14.08;100.00
60465;BME280;46314;52.392;9.758;2023-10-31T03:43:37;98594.59;;;13.93;100.00
60465;BME280;46314;52.392;9.758;2023-10-31T03:46:04;98605.75;;;13.93;100.00
60465;BME280;46314;52.392;9.758;2023-10-31T03:48:32;98595.94;;;14.02;100.00
60465;BME280;46314;52.392;9.758;2023-10-31T03:50:58;98618.00;;;13.61;100.00
60465;BME280;46314;52.392;9.758;2023-10-31T03:53:25;98619.56;;;13.86;100.00
60465;BME280;46314;52.392;9.758;2023-10-31T03:55:51;98620.53;;;13.70;100.00
60465;BME280;46314;52.392;9.758;2023-10-31T03:58:18;98626.97;;;13.74;100.00
60465;BME280;46314;52.392;9.758;2023-10-31T04:04:14;98635.50;;;13.62;100.00
60465;BME280;46314;52.392;9.758;2023-10-31T04:06:40;98643.38;;;13.56;100.00
60465;BME280;46314;52.392;9.758;2023-10-31T04:09:07;98637.19;;;13.90;100.00
60465;BME280;46314;52.392;9.758;2023-10-31T04:11:33;98648.06;;;13.75;100.00
60465;BME280;46314;52.392;9.758;2023-10-31T04:14:00;98649.38;;;13.35;100.00
60465;BME280;46314;52.392;9.758;2023-10-31T04:16:26;98655.47;;;13.91;100.00
60465;BME280;46314;52.392;9.758;2023-10-31T04:18:53;98646.47;;;13.51;100.00
60465;BME280;46314;52.392;9.758;2023-10-31T04:21:21;98661.00;;;13.64;100.00
60465;BME280;46314;52.392;9.758;2023-10-31T04:23:47;98665.66;;;13.56;100.00
60465;BME280;46314;52.392;9.758;2023-10-31T04:26:13;98662.53;;;13.19;100.00
60465;BME280;46314;52.392;9.758;2023-10-31T04:28:40;98671.72;;;13.19;100.00
60465;BME280;46314;52.392;9.758;2023-10-31T04:31:06;98679.53;;;13.53;100.00
60465;BME280;46314;52.392;9.758;2023-10-31T04:33:33;98682.72;;;13.32;100.00
60465;BME280;46314;52.392;9.758;2023-10-31T04:35:59;98675.50;;;13.50;100.00
60465;BME280;46314;52.392;9.758;2023-10-31T04:38:27;98690.53;;;13.46;100.00
60465;BME280;46314;52.392;9.758;2023-10-31T04:40:54;98692.50;;;13.45;100.00
60465;BME280;46314;52.392;9.758;2023-10-31T04:43:20;98709.28;;;13.10;100.00
60465;BME280;46314;52.392;9.758;2023-10-31T04:45:47;98704.72;;;13.60;100.00
60465;BME280;46314;52.392;9.758;2023-10-31T04:48:14;98701.00;;;13.75;100.00
60465;BME280;46314;52.392;9.758;2023-10-31T04:50:40;98699.97;;;12.63;100.00
60465;BME280;46314;52.392;9.758;2023-10-31T04:53:07;98698.09;;;13.06;100.00
60465;BME280;46314;52.392;9.758;2023-10-31T04:55:35;98703.16;;;13.62;100.00
60465;BME280;46314;52.392;9.758;2023-10-31T04:58:01;98706.13;;;12.72;100.00
60465;BME280;46314;52.392;9.758;2023-10-31T05:00:28;98700.72;;;12.99;100.00
60465;BME280;46314;52.392;9.758;2023-10-31T05:02:55;98706.13;;;13.50;100.00
60465;BME280;46314;52.392;9.758;2023-10-31T05:05:21;98704.47;;;13.46;100.00
60465;BME280;46314;52.392;9.758;2023-10-31T05:07:48;98706.19;;;13.54;100.00
60465;BME280;46314;52.392;9.758;2023-10-31T05:10:15;98712.78;;;13.65;100.00
60465;BME280;46314;52.392;9.758;2023-10-31T05:12:42;98725.19;;;13.09;100.00
60465;BME280;46314;52.392;9.758;2023-10-31T05:15:10;98719.97;;;13.27;100.00
60465;BME280;46314;52.392;9.758;2023-10-31T05:17:36;98723.34;;;13.56;100.00
60465;BME280;46314;52.392;9.758;2023-10-31T05:20:04;98724.13;;;13.33;100.00
60465;BME280;46314;52.392;9.758;2023-10-31T05:22:30;98738.97;;;13.83;100.00
60465;BME280;46314;52.392;9.758;2023-10-31T05:24:57;98714.41;;;13.47;100.00
60465;BME280;46314;52.392;9.758;2023-10-31T05:27:23;98727.91;;;13.44;100.00
60465;BME280;46314;52.392;9.758;2023-10-31T05:29:51;98733.88;;;12.68;100.00
60465;BME280;46314;52.392;9.758;2023-10-31T05:32:18;98741.38;;;13.23;100.00
60465;BME280;46314;52.392;9.758;2023-10-31T05:34:44;98734.91;;;13.19;100.00
60465;BME280;46314;52.392;9.758;2023-10-31T05:37:11;98735.81;;;13.23;100.00
60465;BME280;46314;52.392;9.758;2023-10-31T05:39:37;98732.69;;;13.44;100.00
60465;BME280;46314;52.392;9.758;2023-10-31T05:42:04;98726.94;;;13.56;100.00
60465;BME280;46314;52.392;9.758;2023-10-31T05:44:30;98725.78;;;13.38;100.00
60465;BME280;46314;52.392;9.758;2023-10-31T05:46:59;98738.00;;;13.72;100.00
60465;BME280;46314;52.392;9.758;2023-10-31T05:49:28;98738.78;;;13.73;100.00
60465;BME280;46314;52.392;9.758;2023-10-31T05:51:55;98735.34;;;13.01;100.00
60465;BME280;46314;52.392;9.758;2023-10-31T05:54:21;98749.06;;;13.69;100.00
60465;BME280;46314;52.392;9.758;2023-10-31T05:56:48;98749.88;;;13.11;100.00
60465;BME280;46314;52.392;9.758;2023-10-31T05:59:14;98746.91;;;13.39;100.00
60465;BME280;46314;52.392;9.758;2023-10-31T06:01:41;98751.22;;;13.36;100.00
60465;BME280;46314;52.392;9.758;2023-10-31T06:04:08;98760.78;;;13.78;100.00
60465;BME280;46314;52.392;9.758;2023-10-31T06:06:37;98761.06;;;13.73;100.00
60465;BME280;46314;52.392;9.758;2023-10-31T06:09:04;98772.75;;;13.39;100.00
60465;BME280;46314;52.392;9.758;2023-10-31T06:11:30;98769.66;;;13.05;100.00
60465;BME280;46314;52.392;9.758;2023-10-31T06:13:58;98776.09;;;13.10;100.00
60465;BME280;46314;52.392;9.758;2023-10-31T06:16:25;98783.47;;;13.57;100.00
60465;BME280;46314;52.392;9.758;2023-10-31T06:18:51;98781.88;;;13.20;100.00
60465;BME280;46314;52.392;9.758;2023-10-31T06:21:19;98781.22;;;13.27;100.00
60465;BME280;46314;52.392;9.758;2023-10-31T06:23:46;98790.88;;;13.49;100.00
60465;BME280;46314;52.392;9.758;2023-10-31T06:26:12;98785.00;;;13.74;100.00
60465;BME280;46314;52.392;9.758;2023-10-31T06:28:39;98789.28;;;13.13;100.00
60465;BME280;46314;52.392;9.758;2023-10-31T06:31:13;98788.03;;;13.46;100.00
60465;BME280;46314;52.392;9.758;2023-10-31T06:33:40;98804.19;;;13.59;100.00
60465;BME280;46314;52.392;9.758;2023-10-31T06:36:07;98804.53;;;13.97;100.00
60465;BME280;46314;52.392;9.758;2023-10-31T06:38:35;98813.63;;;13.94;100.00
60465;BME280;46314;52.392;9.758;2023-10-31T06:41:02;98810.59;;;13.40;100.00
60465;BME280;46314;52.392;9.758;2023-10-31T06:43:29;98819.25;;;13.55;100.00
60465;BME280;46314;52.392;9.758;2023-10-31T06:45:59;98825.53;;;13.71;100.00
60465;BME280;46314;52.392;9.758;2023-10-31T06:48:26;98829.63;;;13.77;100.00
60465;BME280;46314;52.392;9.758;2023-10-31T06:50:52;98827.44;;;13.67;100.00
60465;BME280;46314;52.392;9.758;2023-10-31T06:53:19;98828.47;;;13.59;100.00
60465;BME280;46314;52.392;9.758;2023-10-31T06:55:47;98827.81;;;13.66;100.00
60465;BME280;46314;52.392;9.758;2023-10-31T06:58:15;98833.66;;;13.80;100.00
60465;BME280;46314;52.392;9.758;2023-10-31T07:00:41;98841.09;;;13.53;100.00
60465;BME280;46314;52.392;9.758;2023-10-31T07:03:08;98838.06;;;13.81;100.00
60465;BME280;46314;52.392;9.758;2023-10-31T07:05:35;98843.91;;;13.95;100.00
60465;BME280;46314;52.392;9.758;2023-10-31T07:08:01;98849.22;;;13.61;100.00
60465;BME280;46314;52.392;9.758;2023-10-31T07:10:28;98859.59;;;13.84;100.00
60465;BME280;46314;52.392;9.758;2023-10-31T07:12:56;98859.25;;;13.66;100.00
60465;BME280;46314;52.392;9.758;2023-10-31T07:15:23;98860.72;;;13.79;100.00
60465;BME280;46314;52.392;9.758;2023-10-31T07:17:50;98870.66;;;14.00;100.00
60465;BME280;46314;52.392;9.758;2023-10-31T07:20:17;98870.00;;;14.07;100.00
60465;BME280;46314;52.392;9.758;2023-10-31T07:22:44;98867.47;;;13.59;100.00
60465;BME280;46314;52.392;9.758;2023-10-31T07:25:10;98884.69;;;13.64;100.00
60465;BME280;46314;52.392;9.758;2023-10-31T07:27:37;98883.59;;;13.69;100.00
60465;BME280;46314;52.392;9.758;2023-10-31T07:30:06;98881.75;;;13.96;100.00
60465;BME280;46314;52.392;9.758;2023-10-31T07:32:33;98885.34;;;13.97;100.00
60465;BME280;46314;52.392;9.758;2023-10-31T07:34:59;98884.19;;;13.78;100.00
60465;BME280;46314;52.392;9.758;2023-10-31T07:37:26;98889.78;;;14.21;100.00
60465;BME280;46314;52.392;9.758;2023-10-31T07:39:52;98887.38;;;14.00;100.00
60465;BME280;46314;52.392;9.758;2023-10-31T07:42:19;98889.16;;;13.89;100.00
60465;BME280;46314;52.392;9.758;2023-10-31T07:44:45;98897.91;;;13.87;100.00
60465;BME280;46314;52.392;9.758;2023-10-31T07:47:13;98893.81;;;13.81;100.00
60465;BME280;46314;52.392;9.758;2023-10-31T07:49:40;98900.03;;;13.74;100.00
60465;BME280;46314;52.392;9.758;2023-10-31T07:52:06;98894.88;;;13.96;100.00
60465;BME280;46314;52.392;9.758;2023-10-31T07:54:33;98901.78;;;14.02;100.00
60465;BME280;46314;52.392;9.758;2023-10-31T07:56:59;98903.81;;;14.05;100.00
60465;BME280;46314;52.392;9.758;2023-10-31T07:59:26;98904.59;;;13.82;100.00
60465;BME280;46314;52.392;9.758;2023-10-31T08:01:52;98909.78;;;14.04;100.00
60465;BME280;46314;52.392;9.758;2023-10-31T08:04:20;98908.75;;;13.92;100.00
60465;BME280;46314;52.392;9.758;2023-10-31T08:06:47;98903.22;;;14.15;100.00
60465;BME280;46314;52.392;9.758;2023-10-31T08:09:14;98919.34;;;14.26;100.00
60465;BME280;46314;52.392;9.758;2023-10-31T08:11:40;98908.94;;;14.23;100.00
60465;BME280;46314;52.392;9.758;2023-10-31T08:14:07;98905.75;;;13.81;100.00
60465;BME280;46314;52.392;9.758;2023-10-31T08:16:34;98916.81;;;13.97;100.00
60465;BME280;46314;52.392;9.758;2023-10-31T08:19:00;98924.53;;;14.04;100.00
60465;BME280;46314;52.392;9.758;2023-10-31T08:21:28;98921.75;;;13.85;100.00
60465;BME280;46314;52.392;9.758;2023-10-31T08:23:55;98922.59;;;14.08;100.00
60465;BME280;46314;52.392;9.758;2023-10-31T08:26:21;98937.34;;;13.34;100.00
60465;BME280;46314;52.392;9.758;2023-10-31T08:28:48;98939.19;;;13.81;100.00
60465;BME280;46314;52.392;9.758;2023-10-31T08:31:15;98943.91;;;13.97;100.00
60465;BME280;46314;52.392;9.758;2023-10-31T08:33:42;98937.06;;;13.94;100.00
60465;BME280;46314;52.392;9.758;2023-10-31T08:36:09;98939.41;;;13.73;100.00
60465;BME280;46314;52.392;9.758;2023-10-31T08:38:36;98951.75;;;13.91;100.00
60465;BME280;46314;52.392;9.758;2023-10-31T08:41:04;98950.84;;;14.07;100.00
60465;BME280;46314;52.392;9.758;2023-10-31T08:43:30;98953.56;;;14.03;100.00
60465;BME280;46314;52.392;9.758;2023-10-31T08:45:57;98968.13;;;14.55;100.00
60465;BME280;46314;52.392;9.758;2023-10-31T08:48:23;98980.13;;;14.16;100.00
60465;BME280;46314;52.392;9.758;2023-10-31T08:50:50;98976.88;;;14.53;100.00
60465;BME280;46314;52.392;9.758;2023-10-31T08:53:17;98980.84;;;14.33;100.00
60465;BME280;46314;52.392;9.758;2023-10-31T08:55:45;98985.22;;;14.11;100.00
60465;BME280;46314;52.392;9.758;2023-10-31T08:58:12;98991.13;;;14.29;100.00
60465;BME280;46314;52.392;9.758;2023-10-31T09:00:38;98986.41;;;14.52;100.00
60465;BME280;46314;52.392;9.758;2023-10-31T09:03:05;98988.91;;;14.38;100.00
60465;BME280;46314;52.392;9.758;2023-10-31T09:05:33;98998.25;;;14.26;100.00
60465;BME280;46314;52.392;9.758;2023-10-31T09:07:59;99003.31;;;14.40;100.00
60465;BME280;46314;52.392;9.758;2023-10-31T09:10:26;99014.53;;;14.63;100.00
60465;BME280;46314;52.392;9.758;2023-10-31T09:12:54;99007.88;;;14.68;100.00
60465;BME280;46314;52.392;9.758;2023-10-31T09:15:21;99002.41;;;14.75;100.00
60465;BME280;46314;52.392;9.758;2023-10-31T09:17:48;99019.03;;;14.29;100.00
60465;BME280;46314;52.392;9.758;2023-10-31T09:20:16;99016.88;;;15.04;100.00
60465;BME280;46314;52.392;9.758;2023-10-31T09:22:43;99018.72;;;15.42;100.00
60465;BME280;46314;52.392;9.758;2023-10-31T09:25:10;99016.63;;;15.12;100.00
60465;BME280;46314;52.392;9.758;2023-10-31T09:27:40;99039.28;;;15.07;100.00
60465;BME280;46314;52.392;9.758;2023-10-31T09:30:09;99041.47;;;14.36;100.00
60465;BME280;46314;52.392;9.758;2023-10-31T09:32:35;99048.56;;;14.69;100.00
60465;BME280;46314;52.392;9.758;2023-10-31T09:35:04;99046.91;;;14.87;100.00
60465;BME280;46314;52.392;9.758;2023-10-31T09:37:31;99062.03;;;14.28;100.00
60465;BME280;46314;52.392;9.758;2023-10-31T09:39:57;99054.72;;;14.78;100.00
60465;BME280;46314;52.392;9.758;2023-10-31T09:42:24;99052.19;;;14.53;100.00
60465;BME280;46314;52.392;9.758;2023-10-31T09:44:51;99051.38;;;14.92;100.00
60465;BME280;46314;52.392;9.758;2023-10-31T09:47:20;99066.03;;;14.66;100.00
60465;BME280;46314;52.392;9.758;2023-10-31T09:49:46;99057.28;;;13.93;100.00
60465;BME280;46314;52.392;9.758;2023-10-31T09:52:14;99075.53;;;14.45;100.00
60465;BME280;46314;52.392;9.758;2023-10-31T09:54:41;99072.34;;;14.63;100.00
60465;BME280;46314;52.392;9.758;2023-10-31T09:57:10;99092.59;;;14.79;100.00
60465;BME280;46314;52.392;9.758;2023-10-31T09:59:37;99086.13;;;14.75;100.00
60465;BME280;46314;52.392;9.758;2023-10-31T10:02:03;99096.13;;;14.76;100.00
60465;BME280;46314;52.392;9.758;2023-10-31T10:04:32;99092.81;;;14.70;100.00
60465;BME280;46314;52.392;9.758;2023-10-31T10:07:00;99109.84;;;14.10;100.00
60465;BME280;46314;52.392;9.758;2023-10-31T10:09:27;99115.13;;;13.80;100.00
60465;BME280;46314;52.392;9.758;2023-10-31T10:11:53;99119.97;;;13.83;100.00
60465;BME280;46314;52.392;9.758;2023-10-31T10:14:23;99120.28;;;14.13;100.00
60465;BME280;46314;52.392;9.758;2023-10-31T10:16:49;99131.53;;;14.01;100.00
60465;BME280;46314;52.392;9.758;2023-10-31T10:19:17;99128.03;;;14.04;100.00
60465;BME280;46314;52.392;9.758;2023-10-31T10:21:50;99119.53;;;13.65;100.00
60465;BME280;46314;52.392;9.758;2023-10-31T10:24:18;99134.19;;;13.62;100.00
60465;BME280;46314;52.392;9.758;2023-10-31T10:26:44;99127.53;;;13.82;100.00
60465;BME280;46314;52.392;9.758;2023-10-31T10:29:11;99140.56;;;13.78;100.00
60465;BME280;46314;52.392;9.758;2023-10-31T10:31:38;99146.16;;;14.14;100.00
60465;BME280;46314;52.392;9.758;2023-10-31T10:34:04;99151.72;;;14.30;100.00
60465;BME280;46314;52.392;9.758;2023-10-31T10:36:32;99141.19;;;14.39;100.00
60465;BME280;46314;52.392;9.758;2023-10-31T10:39:00;99147.78;;;14.50;100.00
60465;BME280;46314;52.392;9.758;2023-10-31T10:41:28;99147.03;;;14.34;100.00
60465;BME280;46314;52.392;9.758;2023-10-31T10:43:56;99146.09;;;14.46;100.00
60465;BME280;46314;52.392;9.758;2023-10-31T10:46:24;99158.50;;;14.48;100.00
60465;BME280;46314;52.392;9.758;2023-10-31T10:48:54;99138.09;;;14.09;100.00
60465;BME280;46314;52.392;9.758;2023-10-31T10:51:25;99148.59;;;14.15;100.00
60465;BME280;46314;52.392;9.758;2023-10-31T10:53:58;99157.22;;;14.26;100.00
60465;BME280;46314;52.392;9.758;2023-10-31T10:56:34;99150.84;;;14.61;100.00
60465;BME280;46314;52.392;9.758;2023-10-31T10:59:08;99166.34;;;14.58;100.00
60465;BME280;46314;52.392;9.758;2023-10-31T11:01:41;99165.78;;;14.69;100.00
60465;BME280;46314;52.392;9.758;2023-10-31T11:04:08;99163.84;;;14.92;100.00
60465;BME280;46314;52.392;9.758;2023-10-31T11:06:36;99172.38;;;14.61;100.00
60465;BME280;46314;52.392;9.758;2023-10-31T11:09:04;99175.34;;;14.52;100.00
60465;BME280;46314;52.392;9.758;2023-10-31T11:11:33;99173.84;;;14.23;100.00
60465;BME280;46314;52.392;9.758;2023-10-31T11:14:02;99187.09;;;14.10;100.00
60465;BME280;46314;52.392;9.758;2023-10-31T11:16:34;99187.94;;;14.46;100.00
60465;BME280;46314;52.392;9.758;2023-10-31T11:19:04;99194.28;;;14.27;100.00
60465;BME280;46314;52.392;9.758;2023-10-31T11:21:31;99201.75;;;14.07;100.00
60465;BME280;46314;52.392;9.758;2023-10-31T11:23:58;99203.25;;;14.36;100.00
60465;BME280;46314;52.392;9.758;2023-10-31T11:26:25;99205.56;;;14.50;100.00
60465;BME280;46314;52.392;9.758;2023-10-31T11:29:03;99204.72;;;14.14;100.00
60465;BME280;46314;52.392;9.758;2023-10-31T11:31:30;99201.19;;;14.33;100.00
60465;BME280;46314;52.392;9.758;2023-10-31T11:33:57;99209.00;;;14.43;100.00
60465;BME280;46314;52.392;9.758;2023-10-31T11:36:23;99202.34;;;14.48;100.00
60465;BME280;46314;52.392;9.758;2023-10-31T11:39:09;99211.06;;;14.62;100.00
60465;BME280;46314;52.392;9.758;2023-10-31T11:41:37;99214.88;;;14.22;100.00
60465;BME280;46314;52.392;9.758;2023-10-31T11:44:05;99211.28;;;14.37;100.00
60465;BME280;46314;52.392;9.758;2023-10-31T11:46:32;99210.03;;;14.19;100.00
60465;BME280;46314;52.392;9.758;2023-10-31T11:48:59;99219.94;;;14.16;100.00
60465;BME280;46314;52.392;9.758;2023-10-31T11:51:26;99219.88;;;13.97;100.00
60465;BME280;46314;52.392;9.758;2023-10-31T11:53:53;99213.59;;;14.51;100.00
60465;BME280;46314;52.392;9.758;2023-10-31T11:56:21;99211.53;;;14.48;100.00
60465;BME280;46314;52.392;9.758;2023-10-31T11:58:58;99215.59;;;14.19;100.00
60465;BME280;46314;52.392;9.758;2023-10-31T12:01:26;99234.31;;;14.34;100.00
60465;BME280;46314;52.392;9.758;2023-10-31T12:03:53;99223.53;;;14.17;100.00
60465;BME280;46314;52.392;9.758;2023-10-31T12:06:19;99226.34;;;14.68;100.00
60465;BME280;46314;52.392;9.758;2023-10-31T12:08:46;99224.69;;;14.83;100.00
60465;BME280;46314;52.392;9.758;2023-10-31T12:11:14;99227.69;;;14.94;100.00
60465;BME280;46314;52.392;9.758;2023-10-31T12:13:42;99223.91;;;14.67;100.00
60465;BME280;46314;52.392;9.758;2023-10-31T12:16:10;99230.28;;;15.03;100.00
60465;BME280;46314;52.392;9.758;2023-10-31T12:18:38;99221.91;;;14.83;100.00
60465;BME280;46314;52.392;9.758;2023-10-31T12:21:05;99225.81;;;14.47;100.00
60465;BME280;46314;52.392;9.758;2023-10-31T12:23:31;99226.78;;;14.70;100.00
60465;BME280;46314;52.392;9.758;2023-10-31T12:25:58;99238.22;;;15.01;100.00
60465;BME280;46314;52.392;9.758;2023-10-31T12:28:25;99236.88;;;14.94;100.00
60465;BME280;46314;52.392;9.758;2023-10-31T12:30:53;99237.50;;;14.68;100.00
60465;BME280;46314;52.392;9.758;2023-10-31T12:33:20;99236.69;;;14.68;100.00
60465;BME280;46314;52.392;9.758;2023-10-31T12:35:49;99250.63;;;14.84;100.00
60465;BME280;46314;52.392;9.758;2023-10-31T12:38:16;99245.50;;;14.70;100.00
60465;BME280;46314;52.392;9.758;2023-10-31T12:40:44;99243.63;;;14.74;100.00
60465;BME280;46314;52.392;9.758;2023-10-31T12:43:11;99258.97;;;14.84;100.00
60465;BME280;46314;52.392;9.758;2023-10-31T12:45:37;99254.31;;;14.72;100.00
60465;BME280;46314;52.392;9.758;2023-10-31T12:48:06;99263.53;;;14.72;100.00
60465;BME280;46314;52.392;9.758;2023-10-31T12:50:33;99262.06;;;14.79;100.00
60465;BME280;46314;52.392;9.758;2023-10-31T12:53:02;99255.75;;;14.82;100.00